Time;durP1;ratioP1;P1;durP2;ratioP2;P2;SDS_P1;SDS_P2;PMS_P1;PMS_P2;Temp;Humidity;BMP_temperature;BMP_pressure;BME280_temperature;BME280_humidity;BME280_pressure;Samples;Min_cycle;Max_cycle;Signal;HPM_P1;HPM_P2
2022/03/17 08:57:23;;;;;;;85.55;48.33;;;;;;;;;;6221722;22;20025;-95
2022/03/17 08:59:49;;;;;;;92.10;52.17;;;;;;;;;;6211282;23;20562;-96
2022/03/17 09:02:14;;;;;;;97.88;51.13;;;;;;;;;;6232355;23;20070;-96
2022/03/17 09:04:40;;;;;;;89.00;50.38;;;;;;;;;;6230433;23;20427;-96
2022/03/17 09:07:06;;;;;;;88.75;49.90;;;;;;;;;;6232809;23;20027;-96
2022/03/17 09:09:34;;;;;;;88.70;52.28;;;;;;;;;;6230778;23;20434;-96
2022/03/17 09:12:05;;;;;;;88.28;51.28;;;;;;;;;;6228619;23;20012;-95
2022/03/17 09:14:32;;;;;;;89.70;52.50;;;;;;;;;;6230018;23;20035;-96
2022/03/17 09:16:58;;;;;;;85.30;50.67;;;;;;;;;;6227717;23;19988;-96
2022/03/17 09:19:23;;;;;;;89.10;51.42;;;;;;;;;;6226965;23;20004;-96
2022/03/17 09:21:49;;;;;;;88.82;51.08;;;;;;;;;;6231729;23;20061;-96
2022/03/17 09:24:14;;;;;;;85.55;49.95;;;;;;;;;;6228692;23;20095;-96
2022/03/17 09:26:40;;;;;;;98.80;53.55;;;;;;;;;;6229035;23;20000;-96
2022/03/17 09:29:16;;;;;;;93.63;51.75;;;;;;;;;;6229411;23;20059;-96
2022/03/17 09:31:46;;;;;;;89.35;51.55;;;;;;;;;;6258237;23;20004;-96
2022/03/17 09:34:12;;;;;;;86.45;51.58;;;;;;;;;;6230569;23;20008;-96
2022/03/17 09:36:39;;;;;;;99.35;51.67;;;;;;;;;;6228174;23;20024;-96
2022/03/17 09:42:35;;;;;;;95.55;51.35;;;;;;;;;;6244554;22;20081;-96
2022/03/17 09:45:02;;;;;;;85.35;47.33;;;;;;;;;;6133461;22;20023;-96
2022/03/17 09:47:35;;;;;;;81.80;47.42;;;;;;;;;;6133635;23;20017;-96
2022/03/17 09:50:05;;;;;;;81.75;48.78;;;;;;;;;;6153975;23;20096;-96
2022/03/17 09:53:28;;;;;;;;;;;;;;;;;;;;;
2022/03/17 10:01:09;;;;;;;87.85;50.80;;;;;;;;;;6214948;22;20068;-95
2022/03/17 10:03:34;;;;;;;87.93;50.03;;;;;;;;;;6226752;23;20000;-96
2022/03/17 10:06:05;;;;;;;90.43;51.35;;;;;;;;;;6231640;23;20011;-94
2022/03/17 10:08:40;;;;;;;86.38;52.08;;;;;;;;;;6246502;23;19985;-96
2022/03/17 10:14:49;;;;;;;92.70;52.63;;;;;;;;;;6148859;23;20002;-96
2022/03/17 10:17:32;;;;;;;92.72;51.38;;;;;;;;;;6123052;23;20013;-96
2022/03/17 10:20:15;;;;;;;91.32;52.72;;;;;;;;;;6215875;22;20697;-96
2022/03/17 10:22:46;;;;;;;92.80;51.75;;;;;;;;;;6259461;22;20450;-96
2022/03/17 10:25:18;;;;;;;95.53;51.83;;;;;;;;;;6259100;22;20058;-96
2022/03/17 10:27:45;;;;;;;98.60;53.63;;;;;;;;;;6261942;22;20000;-96
2022/03/17 10:30:13;;;;;;;104.60;54.00;;;;;;;;;;6260353;22;19999;-96
2022/03/17 10:32:55;;;;;;;99.13;55.30;;;;;;;;;;6264254;22;20013;-96
2022/03/17 10:35:35;;;;;;;97.28;54.85;;;;;;;;;;6276395;22;20019;-94
2022/03/17 10:38:23;;;;;;;100.10;54.85;;;;;;;;;;6209797;23;19997;-96
2022/03/17 10:43:25;;;;;;;98.03;55.38;;;;;;;;;;6267795;22;20075;-95
2022/03/17 10:46:15;;;;;;;96.35;54.65;;;;;;;;;;6254236;23;20004;-93
2022/03/17 10:49:05;;;;;;;98.95;55.42;;;;;;;;;;6235168;23;20015;-96
2022/03/17 10:51:41;;;;;;;;;;;;;;;;;;6258096;22;20007;-96
2022/03/17 10:54:18;;;;;;;97.72;54.60;;;;;;;;;;6229655;23;19914;-96
2022/03/17 10:57:18;;;;;;;98.75;55.53;;;;;;;;;;6229616;23;20000;-96
2022/03/17 10:59:47;;;;;;;100.97;56.15;;;;;;;;;;6231869;23;20028;-96
2022/03/17 11:02:17;;;;;;;105.38;58.13;;;;;;;;;;6257939;23;20007;-95
2022/03/17 11:04:47;;;;;;;;;;;;;;;;;;6205702;23;20025;-96
2022/03/17 11:07:18;;;;;;;100.30;53.92;;;;;;;;;;6205357;23;19931;-96
2022/03/17 11:09:45;;;;;;;99.30;56.53;;;;;;;;;;6197920;23;20005;-94
2022/03/17 11:12:15;;;;;;;111.55;60.15;;;;;;;;;;6190915;23;20519;-94
2022/03/17 11:14:46;;;;;;;108.90;58.70;;;;;;;;;;6191797;23;20014;-91
2022/03/17 11:17:16;;;;;;;108.97;59.03;;;;;;;;;;6194074;23;20079;-91
2022/03/17 11:19:43;;;;;;;101.90;56.97;;;;;;;;;;6192108;23;20475;-91
2022/03/17 11:22:14;;;;;;;110.45;59.33;;;;;;;;;;6191493;23;20076;-93
2022/03/17 11:24:40;;;;;;;106.15;59.20;;;;;;;;;;6193156;23;20001;-93
2022/03/17 11:27:08;;;;;;;104.55;58.25;;;;;;;;;;6191610;23;20036;-94
2022/03/17 11:29:39;;;;;;;111.03;62.00;;;;;;;;;;6193991;23;20439;-95
2022/03/17 11:32:08;;;;;;;101.05;57.90;;;;;;;;;;6189800;23;20009;-92
2022/03/17 11:35:15;;;;;;;101.25;57.58;;;;;;;;;;6195926;23;20001;-96
2022/03/17 11:37:40;;;;;;;98.78;56.38;;;;;;;;;;6225820;23;20052;-95
2022/03/17 11:40:15;;;;;;;97.43;55.50;;;;;;;;;;6225139;23;20009;-96
2022/03/17 11:43:16;;;;;;;103.22;57.38;;;;;;;;;;6198039;23;20009;-96
2022/03/17 11:45:42;;;;;;;96.00;54.58;;;;;;;;;;6130490;23;20490;-96
2022/03/17 11:48:15;;;;;;;95.25;53.25;;;;;;;;;;6194706;23;20005;-96
2022/03/17 11:50:44;;;;;;;98.28;56.05;;;;;;;;;;6195899;23;20005;-95
2022/03/17 11:53:12;;;;;;;100.07;57.08;;;;;;;;;;6169446;23;20057;-96
2022/03/17 11:55:55;;;;;;;96.03;54.90;;;;;;;;;;6191202;23;20005;-93
2022/03/17 11:58:39;;;;;;;94.28;55.28;;;;;;;;;;6188817;23;20420;-93
2022/03/17 12:01:31;;;;;;;101.70;55.63;;;;;;;;;;6189865;23;20009;-94
2022/03/17 12:04:01;;;;;;;100.53;58.38;;;;;;;;;;6191035;23;20025;-95
2022/03/17 12:06:27;;;;;;;95.00;55.25;;;;;;;;;;6191654;23;20001;-94
2022/03/17 12:08:59;;;;;;;95.43;56.28;;;;;;;;;;6193810;23;20012;-93
2022/03/17 12:11:29;;;;;;;91.63;54.83;;;;;;;;;;6193743;23;20005;-95
2022/03/17 12:14:17;;;;;;;95.93;55.00;;;;;;;;;;6193614;23;20009;-93
2022/03/17 12:17:01;;;;;;;94.50;54.60;;;;;;;;;;6192005;23;20001;-94
2022/03/17 12:19:37;;;;;;;101.85;58.90;;;;;;;;;;6192075;23;20008;-94
2022/03/17 12:22:13;;;;;;;96.25;55.67;;;;;;;;;;6194210;23;20009;-95
2022/03/17 12:24:39;;;;;;;94.88;56.92;;;;;;;;;;6189229;23;20054;-96
2022/03/17 12:27:14;;;;;;;105.55;59.33;;;;;;;;;;6189153;23;20005;-94
2022/03/17 12:29:41;;;;;;;97.90;57.55;;;;;;;;;;6189055;23;20005;-96
2022/03/17 12:32:10;;;;;;;102.55;58.00;;;;;;;;;;6191325;23;20012;-94
2022/03/17 12:34:43;;;;;;;99.60;58.65;;;;;;;;;;6206333;23;19993;-93
2022/03/17 12:37:09;;;;;;;94.22;55.83;;;;;;;;;;6201047;23;20005;-93
2022/03/17 12:42:19;;;;;;;93.85;55.70;;;;;;;;;;6171213;23;20024;-93
2022/03/17 12:44:52;;;;;;;94.32;57.85;;;;;;;;;;6194586;23;20032;-91
2022/03/17 12:47:20;;;;;;;97.03;57.17;;;;;;;;;;6196312;23;20001;-92
2022/03/17 12:49:46;;;;;;;99.45;59.60;;;;;;;;;;6197425;23;20001;-92
2022/03/17 12:52:24;;;;;;;101.57;60.03;;;;;;;;;;6221116;23;20015;-92
2022/03/17 17:14:45;;;;;;;72.88;42.10;;;;;;;;;;6241240;23;20104;-94
2022/03/17 17:17:12;;;;;;;71.95;40.88;;;;;;;;;;6251228;23;20431;-94
2022/03/17 17:19:39;;;;;;;59.08;37.67;;;;;;;;;;6225057;23;20008;-93
2022/03/17 17:22:08;;;;;;;66.95;39.65;;;;;;;;;;6252349;23;20004;-93
2022/03/17 17:32:52;;;;;;;75.85;44.03;;;;;;;;;;6248465;23;20065;-90
2022/03/17 17:35:18;;;;;;;76.28;43.70;;;;;;;;;;6222020;23;20004;-92
2022/03/17 17:37:44;;;;;;;78.18;44.40;;;;;;;;;;6222116;23;20004;-91
2022/03/17 17:40:09;;;;;;;76.70;43.83;;;;;;;;;;6221293;23;20370;-92
2022/03/17 17:42:38;;;;;;;70.95;42.42;;;;;;;;;;6221447;23;20054;-92
2022/03/17 17:45:05;;;;;;;72.15;39.95;;;;;;;;;;6221726;23;20427;-92
2022/03/17 17:47:32;;;;;;;69.05;39.47;;;;;;;;;;6221654;23;20010;-92
2022/03/17 17:49:59;;;;;;;69.15;39.63;;;;;;;;;;6221345;23;20010;-92
2022/03/17 17:52:24;;;;;;;68.47;40.10;;;;;;;;;;6230404;23;20016;-92
2022/03/17 17:54:50;;;;;;;72.45;41.30;;;;;;;;;;6232924;23;20004;-93
2022/03/17 17:57:15;;;;;;;73.55;42.88;;;;;;;;;;6221695;23;20005;-93
2022/03/17 17:59:41;;;;;;;64.43;38.17;;;;;;;;;;6221561;23;20313;-93
2022/03/17 18:02:06;;;;;;;69.32;40.83;;;;;;;;;;6221446;23;20008;-93
2022/03/17 18:04:32;;;;;;;75.50;42.10;;;;;;;;;;6248469;23;19997;-94
2022/03/17 18:06:57;;;;;;;68.85;40.97;;;;;;;;;;6221673;23;20008;-93
2022/03/17 18:09:23;;;;;;;73.63;42.85;;;;;;;;;;6221461;23;20037;-94
2022/03/17 18:11:49;;;;;;;73.30;42.05;;;;;;;;;;6228348;23;20036;-90
2022/03/17 18:14:14;;;;;;;66.68;40.67;;;;;;;;;;6230205;23;20023;-95
2022/03/17 18:16:41;;;;;;;72.00;41.58;;;;;;;;;;6222559;23;20024;-95
2022/03/17 18:19:07;;;;;;;70.25;41.33;;;;;;;;;;6223050;23;20004;-94
2022/03/17 18:21:32;;;;;;;67.88;40.03;;;;;;;;;;6222504;23;20408;-92
2022/03/17 18:23:58;;;;;;;70.85;41.72;;;;;;;;;;6223266;23;20004;-92
2022/03/17 18:26:27;;;;;;;68.88;39.78;;;;;;;;;;6247961;23;20008;-95
2022/03/17 18:28:53;;;;;;;69.25;41.25;;;;;;;;;;6221927;23;20083;-92
2022/03/17 18:31:19;;;;;;;70.60;40.80;;;;;;;;;;6221719;23;20055;-93
2022/03/17 18:33:48;;;;;;;79.65;41.72;;;;;;;;;;6221694;23;20011;-96
2022/03/17 18:36:14;;;;;;;71.28;41.33;;;;;;;;;;6222110;23;20004;-95
2022/03/17 18:38:44;;;;;;;72.63;41.35;;;;;;;;;;6221895;23;20051;-93
2022/03/17 18:41:14;;;;;;;72.13;43.53;;;;;;;;;;6222295;23;20429;-92
2022/03/17 18:43:39;;;;;;;65.80;37.78;;;;;;;;;;6226008;23;20008;-94
2022/03/17 18:46:05;;;;;;;61.30;37.28;;;;;;;;;;6227204;23;20038;-92
2022/03/17 18:48:30;;;;;;;64.35;35.15;;;;;;;;;;6223391;23;20011;-96
2022/03/17 18:50:56;;;;;;;64.53;35.78;;;;;;;;;;6224344;23;20001;-92
2022/03/17 18:53:21;;;;;;;62.13;38.38;;;;;;;;;;6248808;23;20004;-94
2022/03/17 18:55:47;;;;;;;62.53;36.83;;;;;;;;;;6221265;23;20062;-94
2022/03/17 18:58:13;;;;;;;70.20;36.50;;;;;;;;;;6222592;23;20008;-92
2022/03/17 19:00:42;;;;;;;66.75;38.58;;;;;;;;;;6221626;23;20008;-94
2022/03/17 19:03:08;;;;;;;65.15;37.30;;;;;;;;;;6248079;23;20424;-92
2022/03/17 19:05:34;;;;;;;71.55;40.38;;;;;;;;;;6248177;23;20020;-93
2022/03/17 19:08:00;;;;;;;77.55;43.20;;;;;;;;;;6221138;23;20030;-93
2022/03/17 19:10:25;;;;;;;70.13;41.83;;;;;;;;;;6222474;23;20001;-96
2022/03/17 19:12:51;;;;;;;68.85;41.33;;;;;;;;;;6221671;23;20434;-92
2022/03/17 19:15:16;;;;;;;69.00;39.30;;;;;;;;;;6220894;23;20313;-92
2022/03/17 19:17:42;;;;;;;79.03;44.03;;;;;;;;;;6221487;23;20081;-93
2022/03/17 19:20:08;;;;;;;88.90;46.85;;;;;;;;;;6221859;23;20001;-94
2022/03/17 19:22:34;;;;;;;76.13;45.63;;;;;;;;;;6221518;23;20091;-94
2022/03/17 19:25:00;;;;;;;80.00;45.40;;;;;;;;;;6221174;23;20031;-94
2022/03/17 19:27:26;;;;;;;73.45;46.35;;;;;;;;;;6220978;23;20015;-94
2022/03/17 20:28:07;;;;;;;62.50;35.28;;;;;;;;;;6204493;22;20095;-92
2022/03/17 20:30:33;;;;;;;59.28;33.47;;;;;;;;;;6190731;23;20313;-92
2022/03/17 20:32:58;;;;;;;62.30;36.10;;;;;;;;;;6191865;23;20016;-92
2022/03/17 20:35:25;;;;;;;63.63;35.50;;;;;;;;;;6201545;23;20040;-92
2022/03/17 20:37:51;;;;;;;64.70;36.10;;;;;;;;;;6221188;23;20054;-93
2022/03/17 20:40:16;;;;;;;65.38;36.75;;;;;;;;;;6222919;23;20015;-92
2022/03/17 20:42:42;;;;;;;65.78;38.72;;;;;;;;;;6221374;23;20332;-92
2022/03/17 20:45:07;;;;;;;65.82;37.80;;;;;;;;;;6220893;23;20004;-93
2022/03/17 20:47:33;;;;;;;66.78;38.67;;;;;;;;;;6220216;23;20007;-92
2022/03/17 20:49:59;;;;;;;63.20;36.33;;;;;;;;;;6221790;23;20004;-93
2022/03/17 20:52:24;;;;;;;63.22;35.35;;;;;;;;;;6221032;23;20427;-92
2022/03/17 20:54:52;;;;;;;61.58;34.40;;;;;;;;;;6221070;23;20027;-92
2022/03/17 20:57:18;;;;;;;65.85;36.20;;;;;;;;;;6220913;23;20004;-93
2022/03/17 20:59:44;;;;;;;65.03;36.33;;;;;;;;;;6222738;23;20005;-93
2022/03/17 21:02:11;;;;;;;60.20;33.88;;;;;;;;;;6221461;23;20004;-92
2022/03/17 21:04:37;;;;;;;75.78;42.10;;;;;;;;;;6220899;23;20101;-92
2022/03/17 21:07:02;;;;;;;69.28;39.10;;;;;;;;;;6220800;23;20420;-92
2022/03/17 21:09:28;;;;;;;68.22;41.22;;;;;;;;;;6221286;23;20011;-93
2022/03/17 21:11:53;;;;;;;66.63;40.17;;;;;;;;;;6220737;23;20379;-94
2022/03/17 21:14:19;;;;;;;65.90;37.92;;;;;;;;;;6220801;23;20043;-93
2022/03/17 21:16:45;;;;;;;65.13;37.35;;;;;;;;;;6222870;23;20031;-92
2022/03/17 21:19:10;;;;;;;62.88;38.47;;;;;;;;;;6222799;23;20331;-90
2022/03/17 21:21:35;;;;;;;61.35;35.60;;;;;;;;;;6223803;23;20008;-91
2022/03/17 21:24:01;;;;;;;62.63;35.30;;;;;;;;;;6222508;23;20004;-91
2022/03/17 21:26:26;;;;;;;58.67;34.58;;;;;;;;;;6222332;23;20032;-92
2022/03/17 21:28:53;;;;;;;59.63;34.90;;;;;;;;;;6223119;23;20016;-95
2022/03/17 21:31:20;;;;;;;59.08;33.03;;;;;;;;;;6222409;23;20500;-96
2022/03/17 21:33:47;;;;;;;64.68;36.10;;;;;;;;;;6222212;23;20339;-93
2022/03/17 21:36:12;;;;;;;59.65;36.55;;;;;;;;;;6222367;23;20008;-92
2022/03/17 21:38:38;;;;;;;60.78;37.47;;;;;;;;;;6222471;23;20058;-92
2022/03/17 21:41:05;;;;;;;63.08;36.63;;;;;;;;;;6222202;23;20494;-93
2022/03/17 21:43:33;;;;;;;64.30;38.78;;;;;;;;;;6225507;23;20008;-92
2022/03/17 21:45:59;;;;;;;62.38;37.50;;;;;;;;;;6224895;23;20027;-91
2022/03/17 21:48:24;;;;;;;63.72;37.28;;;;;;;;;;6224637;23;20419;-93
2022/03/17 21:50:50;;;;;;;64.20;38.75;;;;;;;;;;6224975;23;20011;-93
2022/03/17 21:53:15;;;;;;;66.28;37.47;;;;;;;;;;6224372;23;20011;-92
2022/03/17 21:55:42;;;;;;;62.47;36.85;;;;;;;;;;6224356;23;20056;-92
2022/03/17 21:58:08;;;;;;;56.30;33.30;;;;;;;;;;6224299;23;20046;-93
2022/03/17 22:00:33;;;;;;;57.00;33.70;;;;;;;;;;6223515;23;20004;-93
2022/03/17 22:02:58;;;;;;;56.60;33.70;;;;;;;;;;6221906;23;20499;-92
2022/03/17 22:05:24;;;;;;;59.08;34.53;;;;;;;;;;6222754;23;20086;-92
2022/03/17 22:07:53;;;;;;;61.92;33.97;;;;;;;;;;6228049;23;20043;-92
2022/03/17 22:10:19;;;;;;;55.03;32.78;;;;;;;;;;6222096;23;20339;-92
2022/03/17 22:12:44;;;;;;;58.95;34.50;;;;;;;;;;6222099;23;20015;-93
2022/03/17 22:15:10;;;;;;;57.55;32.45;;;;;;;;;;6222618;23;20008;-93
2022/03/17 22:17:38;;;;;;;62.40;35.22;;;;;;;;;;6223539;23;20038;-93
2022/03/17 22:20:04;;;;;;;57.88;32.95;;;;;;;;;;6223646;23;20004;-93
2022/03/17 22:22:30;;;;;;;59.90;33.67;;;;;;;;;;6225317;23;20005;-93
2022/03/17 22:24:56;;;;;;;61.03;32.97;;;;;;;;;;6223385;23;20027;-94
2022/03/17 22:27:21;;;;;;;59.60;33.17;;;;;;;;;;6223015;23;20054;-93
2022/03/17 22:29:47;;;;;;;52.40;30.60;;;;;;;;;;6222719;23;20074;-93
2022/03/17 22:32:14;;;;;;;59.38;32.08;;;;;;;;;;6222500;23;20018;-93
2022/03/17 22:34:39;;;;;;;52.40;31.67;;;;;;;;;;6222120;23;20004;-94
2022/03/17 22:37:06;;;;;;;55.75;31.80;;;;;;;;;;6249678;23;20008;-92
2022/03/17 22:41:30;;;;;;;56.20;34.15;;;;;;;;;;6223340;23;20350;-93
2022/03/17 22:42:17;;;;;;;54.63;32.90;;;;;;;;;;6248392;23;20015;-94
2022/03/17 22:44:42;;;;;;;58.65;34.55;;;;;;;;;;6222999;23;19996;-93
2022/03/17 22:47:08;;;;;;;59.30;34.28;;;;;;;;;;6224677;23;20004;-93
2022/03/17 22:49:33;;;;;;;58.45;34.33;;;;;;;;;;6249678;23;20027;-93
2022/03/17 22:51:59;;;;;;;59.67;36.03;;;;;;;;;;6223312;23;20039;-94
2022/03/17 22:54:24;;;;;;;57.95;33.78;;;;;;;;;;6249318;23;19996;-93
2022/03/17 22:56:50;;;;;;;62.25;33.00;;;;;;;;;;6222203;23;20007;-92
2022/03/17 22:59:16;;;;;;;55.50;32.33;;;;;;;;;;6222357;23;20016;-94
2022/03/17 23:01:42;;;;;;;58.10;32.05;;;;;;;;;;6222629;23;20335;-94
2022/03/17 23:04:08;;;;;;;54.05;31.40;;;;;;;;;;6222559;23;20424;-95
2022/03/17 23:06:34;;;;;;;60.42;34.20;;;;;;;;;;6222142;23;20004;-94
2022/03/17 23:09:01;;;;;;;62.72;33.28;;;;;;;;;;6247495;23;20011;-95
2022/03/17 23:11:27;;;;;;;55.25;32.45;;;;;;;;;;6221511;23;20333;-93
2022/03/17 23:13:54;;;;;;;62.97;32.13;;;;;;;;;;6221833;23;20004;-95
2022/03/17 23:16:21;;;;;;;56.70;31.00;;;;;;;;;;6221562;23;20324;-94
2022/03/17 23:18:47;;;;;;;58.47;31.88;;;;;;;;;;6221392;23;20057;-94
2022/03/17 23:21:13;;;;;;;54.13;31.13;;;;;;;;;;6222844;23;20008;-92
2022/03/17 23:23:39;;;;;;;57.75;32.33;;;;;;;;;;6221457;23;20388;-93
2022/03/17 23:26:05;;;;;;;58.10;32.25;;;;;;;;;;6222138;23;20008;-96
2022/03/17 23:28:32;;;;;;;52.83;31.60;;;;;;;;;;6221957;23;20458;-94
2022/03/17 23:30:57;;;;;;;54.88;31.08;;;;;;;;;;6228145;23;20043;-96
2022/03/17 23:33:24;;;;;;;60.45;32.60;;;;;;;;;;6225331;23;20012;-94
2022/03/17 23:35:49;;;;;;;58.38;32.50;;;;;;;;;;6221870;23;20000;-92
2022/03/17 23:38:15;;;;;;;55.50;31.27;;;;;;;;;;6221741;23;20095;-93
